createdAt,value
2023-11-06T00:03:58.301Z,0.38
2023-11-06T00:08:59.915Z,0.50
2023-11-06T00:14:01.949Z,0.40
2023-11-06T00:19:03.780Z,0.50
2023-11-06T00:24:06.973Z,0.50
2023-11-06T00:29:08.603Z,1.05
2023-11-06T00:34:10.347Z,0.85
2023-11-06T00:39:13.637Z,0.60
2023-11-06T00:44:15.335Z,0.70
2023-11-06T00:49:16.979Z,0.63
2023-11-06T00:54:18.767Z,0.60
2023-11-06T00:59:21.766Z,0.52
2023-11-06T01:04:23.485Z,0.43
2023-11-06T01:09:25.865Z,0.85
2023-11-06T01:14:27.520Z,0.82
2023-11-06T01:19:29.181Z,0.63
2023-11-06T01:24:31.129Z,0.70
2023-11-06T01:29:32.789Z,0.80
2023-11-06T01:34:34.420Z,0.50
2023-11-06T01:39:36.031Z,0.75
2023-11-06T01:44:38.495Z,0.75
2023-11-06T01:49:41.495Z,0.65
2023-11-06T01:54:43.388Z,0.70
2023-11-06T01:59:45.435Z,0.43
2023-11-06T02:04:50.847Z,0.38
2023-11-06T02:09:53.746Z,0.30
2023-11-06T02:14:56.549Z,0.55
2023-11-06T02:20:00.305Z,0.90
2023-11-06T02:25:01.954Z,0.40
2023-11-06T02:30:03.932Z,0.40
2023-11-06T02:35:08.887Z,0.30
2023-11-06T02:40:13.486Z,0.47
2023-11-06T02:45:15.541Z,0.60
2023-11-06T02:50:17.248Z,0.60
2023-11-06T02:55:18.862Z,0.52
2023-11-06T03:00:22.042Z,0.50
2023-11-06T03:05:23.898Z,0.60
2023-11-06T03:10:25.721Z,0.55
2023-11-06T03:15:27.313Z,0.35
2023-11-06T03:20:28.909Z,0.60
2023-11-06T03:25:30.537Z,0.40
2023-11-06T03:30:32.125Z,0.60
2023-11-06T03:35:33.857Z,0.50
2023-11-06T03:40:35.460Z,0.50
2023-11-06T03:45:37.022Z,0.35
2023-11-06T03:50:43.863Z,0.80
2023-11-06T03:55:45.465Z,0.43
2023-11-06T04:00:48.004Z,0.35
2023-11-06T04:05:49.694Z,0.35
2023-11-06T04:10:51.382Z,0.50
2023-11-06T04:15:52.958Z,0.57
2023-11-06T04:20:55.535Z,0.60
2023-11-06T04:25:57.277Z,0.68
2023-11-06T04:30:58.865Z,0.30
2023-11-06T04:36:00.557Z,0.60
2023-11-06T04:41:02.191Z,0.50
2023-11-06T04:46:04.340Z,0.50
2023-11-06T04:51:06.523Z,0.40
2023-11-06T04:56:08.655Z,0.40
2023-11-06T05:01:10.339Z,0.57
2023-11-06T05:06:11.950Z,0.43
2023-11-06T05:11:14.086Z,0.30
2023-11-06T05:16:15.758Z,0.30
2023-11-06T05:21:27.454Z,0.75
2023-11-06T05:26:29.018Z,0.47
2023-11-06T05:31:30.903Z,0.32
2023-11-06T05:36:32.481Z,0.40
2023-11-06T05:41:34.128Z,0.50
2023-11-06T05:46:35.666Z,0.50
2023-11-06T05:51:38.958Z,0.32
2023-11-06T05:56:40.488Z,0.45
2023-11-06T06:01:42.030Z,0.43
2023-11-06T06:06:43.753Z,0.43
2023-11-06T06:11:46.607Z,0.38
2023-11-06T06:16:50.572Z,0.50
2023-11-06T06:21:52.241Z,0.43
2023-11-06T06:26:53.865Z,0.63
2023-11-06T06:31:56.051Z,0.70
2023-11-06T06:36:57.686Z,0.60
2023-11-06T06:41:59.268Z,0.68
2023-11-06T06:47:00.855Z,0.47
2023-11-06T06:52:02.587Z,0.50
2023-11-06T06:57:05.376Z,0.73
2023-11-06T07:02:07.003Z,0.40
2023-11-06T07:07:08.758Z,0.57
2023-11-06T07:12:10.387Z,0.65
2023-11-06T07:17:12.016Z,0.40
2023-11-06T07:22:13.610Z,0.43
2023-11-06T07:27:15.291Z,0.43
2023-11-06T07:32:17.100Z,0.55
2023-11-06T07:37:18.817Z,0.40
2023-11-06T07:42:20.408Z,0.60
2023-11-06T07:47:22.026Z,0.40
2023-11-06T07:52:23.635Z,0.50
2023-11-06T07:57:27.436Z,0.90
2023-11-06T08:02:30.828Z,0.45
2023-11-06T08:07:32.547Z,0.43
2023-11-06T08:12:34.865Z,0.57
2023-11-06T08:17:37.096Z,0.77
2023-11-06T08:22:39.203Z,0.47
2023-11-06T08:27:40.921Z,0.65
2023-11-06T08:32:42.727Z,0.50
2023-11-06T08:37:44.408Z,0.57
2023-11-06T08:42:46.366Z,0.40
2023-11-06T08:47:48.060Z,0.82
2023-11-06T08:52:49.822Z,0.30
2023-11-06T08:57:51.502Z,0.40
2023-11-06T09:02:53.274Z,0.40
2023-11-06T09:07:54.957Z,0.30
2023-11-06T09:12:58.528Z,0.52
2023-11-06T09:18:00.319Z,0.75
2023-11-06T09:23:02.306Z,0.40
2023-11-06T09:28:04.152Z,0.68
2023-11-06T09:33:06.527Z,0.45
2023-11-06T09:38:09.568Z,0.50
2023-11-06T09:43:12.210Z,0.70
2023-11-06T09:48:19.651Z,0.68
2023-11-06T09:53:24.256Z,0.57
2023-11-06T09:58:26.506Z,0.50
2023-11-06T10:03:28.999Z,0.50
2023-11-06T10:08:32.051Z,0.38
2023-11-06T10:13:51.258Z,0.35
2023-11-06T10:19:13.659Z,0.40
2023-11-06T10:24:16.897Z,0.40
2023-11-06T10:29:20.116Z,0.68
2023-11-06T10:34:29.852Z,0.55
2023-11-06T10:39:32.782Z,0.30
2023-11-06T10:44:36.070Z,0.52
2023-11-06T10:50:02.615Z,0.60
2023-11-06T10:55:12.371Z,0.35
2023-11-06T11:00:25.050Z,0.30
2023-11-06T11:05:32.898Z,0.35
2023-11-06T11:10:37.104Z,0.38
2023-11-06T11:15:42.268Z,0.40
2023-11-06T11:20:51.329Z,0.40
2023-11-06T11:26:05.357Z,0.50
2023-11-06T11:31:33.557Z,0.38
2023-11-06T11:36:37.116Z,0.50
2023-11-06T11:41:40.239Z,0.20
2023-11-06T11:46:48.865Z,0.30
2023-11-06T11:51:51.162Z,0.47
2023-11-06T11:56:53.349Z,0.30
2023-11-06T12:01:55.181Z,0.50
2023-11-06T12:06:59.496Z,0.30
2023-11-06T12:12:01.101Z,0.20
2023-11-06T12:17:07.979Z,0.38
2023-11-06T12:22:16.199Z,0.30
2023-11-06T12:27:19.445Z,0.20
2023-11-06T12:32:23.604Z,0.20
2023-11-06T12:37:25.945Z,0.20
2023-11-06T12:42:29.752Z,0.30
2023-11-06T12:47:35.687Z,0.30
2023-11-06T12:52:40.071Z,0.28
2023-11-06T12:57:44.716Z,0.10
2023-11-06T13:02:47.316Z,0.38
2023-11-06T13:07:52.739Z,0.20
2023-11-06T13:12:54.430Z,0.20
2023-11-06T13:17:56.748Z,0.30
2023-11-06T13:22:59.773Z,0.20
2023-11-06T13:28:02.752Z,0.10
2023-11-06T13:33:08.572Z,0.22
2023-11-06T13:38:10.622Z,0.20
2023-11-06T13:43:12.961Z,0.40
2023-11-06T13:48:14.640Z,0.10
2023-11-06T13:53:25.994Z,0.30
2023-11-06T13:58:29.268Z,0.47
2023-11-06T14:03:31.016Z,0.17
2023-11-06T14:08:33.585Z,0.30
2023-11-06T14:13:35.178Z,0.20
2023-11-06T14:18:36.820Z,0.28
2023-11-06T14:23:38.804Z,0.40
2023-11-06T14:28:40.470Z,0.20
2023-11-06T14:33:42.086Z,0.65
2023-11-06T14:38:43.813Z,0.20
2023-11-06T14:43:45.439Z,0.50
2023-11-06T14:48:50.781Z,1.00
2023-11-06T14:53:58.492Z,0.40
2023-11-06T14:59:00.556Z,0.60
2023-11-06T15:04:03.047Z,0.50
2023-11-06T15:09:04.801Z,1.55
2023-11-06T15:14:07.548Z,0.77
2023-11-06T15:19:11.234Z,0.80
2023-11-06T15:24:14.276Z,0.57
2023-11-06T15:29:16.056Z,0.82
2023-11-06T15:34:18.284Z,0.93
2023-11-06T15:39:22.461Z,1.10
2023-11-06T15:44:24.670Z,0.73
2023-11-06T15:49:27.803Z,0.73
2023-11-06T15:54:34.262Z,0.50
2023-11-06T15:59:36.125Z,0.70
2023-11-06T16:04:38.000Z,41.45
2023-11-06T16:09:43.113Z,21.42
2023-11-06T16:14:45.247Z,2.55
2023-11-06T16:19:46.895Z,1.58
2023-11-06T16:24:48.483Z,1.60
2023-11-06T16:29:50.589Z,1.00
2023-11-06T16:34:52.504Z,0.73
2023-11-06T16:39:54.240Z,0.68
2023-11-06T16:44:55.806Z,0.70
2023-11-06T16:49:57.508Z,0.95
2023-11-06T16:54:59.243Z,0.43
2023-11-06T17:00:00.856Z,3.90
2023-11-06T17:05:05.991Z,2.60
2023-11-06T17:10:08.281Z,22.98
2023-11-06T17:15:11.409Z,15.20
2023-11-06T17:20:14.111Z,51.78
2023-11-06T17:25:15.965Z,51.08
2023-11-06T17:30:17.789Z,32.00
2023-11-06T17:35:19.536Z,11.25
2023-11-06T17:40:21.328Z,1.60
2023-11-06T17:45:22.967Z,1.17
2023-11-06T17:50:24.545Z,1.05
2023-11-06T17:55:26.886Z,1.08
2023-11-06T18:00:28.548Z,1.10
2023-11-06T18:05:30.192Z,0.77
2023-11-06T18:10:31.785Z,1.02
2023-11-06T18:15:33.539Z,2.22
2023-11-06T18:20:35.116Z,6.97
2023-11-06T18:25:37.071Z,4.13
2023-11-06T18:30:40.777Z,2.28
2023-11-06T18:35:43.527Z,2.08
2023-11-06T18:40:47.598Z,3.10
2023-11-06T18:45:49.310Z,1.77
2023-11-06T18:50:50.937Z,1.40
2023-11-06T18:55:52.800Z,4.43
2023-11-06T19:00:54.411Z,1.88
2023-11-06T19:05:56.516Z,1.65
2023-11-06T19:11:00.905Z,2.47
2023-11-06T19:16:03.390Z,1.35
2023-11-06T19:21:05.606Z,2.28
2023-11-06T19:26:07.231Z,1.70
2023-11-06T19:31:09.080Z,1.65
2023-11-06T19:36:11.541Z,1.55
2023-11-06T19:41:13.205Z,1.30
2023-11-06T19:46:15.416Z,1.38
2023-11-06T19:51:17.045Z,1.20
2023-11-06T19:56:19.347Z,0.90
2023-11-06T20:01:21.024Z,0.90
2023-11-06T20:06:22.873Z,0.70
2023-11-06T20:11:24.553Z,0.77
2023-11-06T20:16:26.267Z,1.10
2023-11-06T20:21:32.658Z,0.93
2023-11-06T20:26:34.705Z,0.70
2023-11-06T20:31:36.538Z,0.80
2023-11-06T20:36:42.709Z,0.60
2023-11-06T20:41:45.567Z,0.40
2023-11-06T20:46:47.976Z,0.20
2023-11-06T20:51:49.920Z,0.10
2023-11-06T20:56:51.535Z,0.28
2023-11-06T21:01:53.153Z,0.22
2023-11-06T21:06:54.738Z,0.20
2023-11-06T21:11:56.337Z,0.20
2023-11-06T21:16:57.959Z,0.70
2023-11-06T21:21:59.633Z,1.40
2023-11-06T21:27:01.454Z,1.20
2023-11-06T21:32:04.067Z,1.02
2023-11-06T21:37:05.933Z,0.77
2023-11-06T21:42:08.367Z,0.40
2023-11-06T21:47:12.029Z,0.25
2023-11-06T21:52:13.654Z,0.30
2023-11-06T21:57:15.240Z,0.40
2023-11-06T22:02:16.909Z,0.40
2023-11-06T22:07:19.302Z,0.40
2023-11-06T22:12:21.101Z,0.43
2023-11-06T22:17:22.771Z,0.40
2023-11-06T22:22:24.445Z,0.30
2023-11-06T22:27:27.407Z,0.20
2023-11-06T22:32:29.067Z,0.35
2023-11-06T22:37:30.704Z,0.32
2023-11-06T22:42:34.486Z,2.28
2023-11-06T22:47:36.228Z,0.30
2023-11-06T22:52:39.521Z,0.20
2023-11-06T22:57:41.771Z,3.83
2023-11-06T23:02:43.797Z,0.38
2023-11-06T23:07:45.486Z,0.30
2023-11-06T23:12:47.157Z,0.43
2023-11-06T23:17:49.027Z,0.60
2023-11-06T23:22:50.736Z,0.80
2023-11-06T23:27:53.560Z,0.40
2023-11-06T23:32:55.280Z,0.32
2023-11-06T23:37:57.075Z,0.30
2023-11-06T23:42:58.726Z,0.30
2023-11-06T23:48:00.700Z,0.40
2023-11-06T23:53:03.419Z,0.38
2023-11-06T23:58:05.078Z,0.30
